createdAt,value
2023-03-25T00:02:27.758Z,2.73
2023-03-25T00:04:54.976Z,2.69
2023-03-25T00:07:22.883Z,2.67
2023-03-25T00:09:49.973Z,2.71
2023-03-25T00:12:18.941Z,2.73
2023-03-25T00:14:54.597Z,2.71
2023-03-25T00:17:23.078Z,2.72
2023-03-25T00:19:52.815Z,2.76
2023-03-25T00:22:19.667Z,2.80
2023-03-25T00:24:46.707Z,2.80
2023-03-25T00:27:14.560Z,2.80
2023-03-25T00:29:44.699Z,2.79
2023-03-25T00:32:12.949Z,2.78
2023-03-25T00:34:47.658Z,2.82
2023-03-25T00:37:17.742Z,2.84
2023-03-25T00:39:45.820Z,2.78
2023-03-25T00:42:16.282Z,2.76
2023-03-25T00:44:43.845Z,2.73
2023-03-25T00:47:12.546Z,2.65
2023-03-25T00:49:39.456Z,2.53
2023-03-25T00:52:06.690Z,2.45
2023-03-25T00:54:34.397Z,2.36
2023-03-25T00:57:01.406Z,2.31
2023-03-25T00:59:28.415Z,2.31
2023-03-25T01:01:56.343Z,2.32
2023-03-25T01:04:23.373Z,2.27
2023-03-25T01:06:51.894Z,2.25
2023-03-25T01:09:19.826Z,2.25
2023-03-25T01:11:46.896Z,2.11
2023-03-25T01:14:18.770Z,1.94
2023-03-25T01:16:46.349Z,1.83
2023-03-25T01:19:13.485Z,1.79
2023-03-25T01:21:40.881Z,1.73
2023-03-25T01:24:10.327Z,1.73
2023-03-25T01:26:38.022Z,1.86
2023-03-25T01:29:05.877Z,1.96
2023-03-25T01:31:33.510Z,2.02
2023-03-25T01:34:00.753Z,2.01
2023-03-25T01:36:30.689Z,1.99
2023-03-25T01:38:59.216Z,1.93
2023-03-25T01:41:35.685Z,1.89
2023-03-25T01:44:06.133Z,1.85
2023-03-25T01:46:33.442Z,1.82
2023-03-25T01:49:01.277Z,1.77
2023-03-25T01:51:34.026Z,1.79
2023-03-25T01:54:00.956Z,1.80
2023-03-25T01:56:31.969Z,1.79
2023-03-25T01:59:04.307Z,1.76
2023-03-25T02:01:31.476Z,1.77
2023-03-25T02:04:03.467Z,1.77
2023-03-25T02:06:36.713Z,1.77
2023-03-25T02:09:09.153Z,1.82
2023-03-25T02:11:36.345Z,1.82
2023-03-25T02:14:04.947Z,1.88
2023-03-25T02:17:03.490Z,1.90
2023-03-25T02:19:51.424Z,1.91
2023-03-25T02:22:56.369Z,1.87
2023-03-25T02:25:35.844Z,1.81
2023-03-25T02:28:03.849Z,1.82
2023-03-25T02:30:39.971Z,1.81
2023-03-25T02:33:28.704Z,1.80
2023-03-25T02:36:23.732Z,1.77
2023-03-25T02:39:11.623Z,1.78
2023-03-25T02:42:17.119Z,1.76
2023-03-25T02:44:55.864Z,1.74
2023-03-25T02:47:23.452Z,1.74
2023-03-25T02:49:59.450Z,1.74
2023-03-25T02:52:43.694Z,1.68
2023-03-25T02:55:11.465Z,1.62
2023-03-25T02:57:41.748Z,1.61
2023-03-25T03:00:15.506Z,1.65
2023-03-25T03:02:44.781Z,1.74
2023-03-25T03:05:28.884Z,1.81
2023-03-25T03:08:09.211Z,1.85
2023-03-25T03:10:48.876Z,1.89
2023-03-25T03:13:24.520Z,1.92
2023-03-25T03:16:24.980Z,1.94
2023-03-25T03:19:02.349Z,1.97
2023-03-25T03:21:41.730Z,2.01
2023-03-25T03:24:27.103Z,2.06
2023-03-25T03:27:04.227Z,2.12
2023-03-25T03:29:39.901Z,2.19
2023-03-25T03:32:21.074Z,2.26
2023-03-25T03:35:20.428Z,2.32
2023-03-25T03:37:58.239Z,2.36
2023-03-25T03:40:25.346Z,2.41
2023-03-25T03:43:16.797Z,2.47
2023-03-25T03:45:46.522Z,2.53
2023-03-25T03:48:22.246Z,2.57
2023-03-25T03:51:31.948Z,2.65
2023-03-25T03:54:00.858Z,2.69
2023-03-25T03:57:08.568Z,2.71
2023-03-25T03:59:35.400Z,2.71
2023-03-25T04:02:03.434Z,2.67
2023-03-25T04:04:30.474Z,2.67
2023-03-25T04:07:10.680Z,2.71
2023-03-25T04:09:55.269Z,2.77
2023-03-25T04:12:29.284Z,2.77
2023-03-25T04:14:56.257Z,2.78
2023-03-25T04:17:24.271Z,2.79
2023-03-25T04:19:53.679Z,2.81
2023-03-25T04:22:21.936Z,2.83
2023-03-25T04:24:55.049Z,2.87
2023-03-25T04:27:23.229Z,2.90
2023-03-25T04:29:51.974Z,2.94
2023-03-25T04:32:19.104Z,2.99
2023-03-25T04:34:47.094Z,3.05
2023-03-25T04:37:14.208Z,3.15
2023-03-25T04:39:41.710Z,3.35
2023-03-25T04:42:13.821Z,3.47
2023-03-25T04:44:40.774Z,3.56
2023-03-25T04:47:07.796Z,3.67
2023-03-25T04:49:34.661Z,3.74
2023-03-25T04:52:04.337Z,3.80
2023-03-25T04:54:31.533Z,3.93
2023-03-25T04:56:59.167Z,4.02
2023-03-25T04:59:27.212Z,4.06
2023-03-25T05:01:54.208Z,4.10
2023-03-25T05:04:21.674Z,4.13
2023-03-25T05:06:50.623Z,4.20
2023-03-25T05:09:19.640Z,4.25
2023-03-25T05:11:46.666Z,4.30
2023-03-25T05:14:14.746Z,4.36
2023-03-25T05:16:41.784Z,4.39
2023-03-25T05:19:08.784Z,4.47
2023-03-25T05:21:37.600Z,4.51
2023-03-25T05:24:08.394Z,4.54
2023-03-25T05:26:35.540Z,4.54
2023-03-25T05:29:06.490Z,4.61
2023-03-25T05:31:33.514Z,4.64
2023-03-25T05:34:00.463Z,4.71
2023-03-25T05:36:27.523Z,4.81
2023-03-25T05:38:54.785Z,4.96
2023-03-25T05:41:22.877Z,5.09
2023-03-25T05:43:50.803Z,5.14
2023-03-25T05:46:19.111Z,5.19
2023-03-25T05:48:46.155Z,5.33
2023-03-25T05:51:16.054Z,5.45
2023-03-25T05:53:44.038Z,5.58
2023-03-25T05:56:12.014Z,5.75
2023-03-25T05:58:39.376Z,5.87
2023-03-25T06:01:09.292Z,5.96
2023-03-25T06:03:42.088Z,6.03
2023-03-25T06:06:14.153Z,5.99
2023-03-25T06:08:41.653Z,6.00
2023-03-25T06:11:14.087Z,6.01
2023-03-25T06:13:41.594Z,6.10
2023-03-25T06:16:09.746Z,6.18
2023-03-25T06:18:37.617Z,6.26
2023-03-25T06:21:04.934Z,6.29
2023-03-25T06:23:35.469Z,6.33
2023-03-25T06:26:04.384Z,6.36
2023-03-25T06:28:33.660Z,6.40
2023-03-25T06:31:07.365Z,6.43
2023-03-25T06:33:42.516Z,6.48
2023-03-25T06:36:11.986Z,6.52
2023-03-25T06:38:39.701Z,6.52
2023-03-25T06:41:10.254Z,6.55
2023-03-25T06:43:38.450Z,6.58
2023-03-25T06:46:28.183Z,6.61
2023-03-25T06:49:11.122Z,6.66
2023-03-25T06:51:38.124Z,6.70
2023-03-25T06:54:05.424Z,6.73
2023-03-25T06:56:32.490Z,6.81
2023-03-25T06:58:59.573Z,6.89
2023-03-25T07:01:26.543Z,7.03
2023-03-25T07:03:54.554Z,7.15
2023-03-25T07:06:23.786Z,7.27
2023-03-25T07:08:50.817Z,7.36
2023-03-25T07:11:21.537Z,7.47
2023-03-25T07:13:48.565Z,7.56
2023-03-25T07:16:15.734Z,7.63
2023-03-25T07:18:42.725Z,7.64
2023-03-25T07:21:09.666Z,7.65
2023-03-25T07:23:36.663Z,7.67
2023-03-25T07:26:03.535Z,7.70
2023-03-25T07:28:30.557Z,7.75
2023-03-25T07:30:57.574Z,7.79
2023-03-25T07:33:24.617Z,7.79
2023-03-25T07:35:51.642Z,7.75
2023-03-25T07:38:18.752Z,7.77
2023-03-25T07:40:50.233Z,7.82
2023-03-25T07:43:17.420Z,7.85
2023-03-25T07:45:53.877Z,7.79
2023-03-25T07:48:22.838Z,7.76
2023-03-25T07:50:51.389Z,7.79
2023-03-25T07:53:18.524Z,7.80
2023-03-25T07:55:45.862Z,7.81
2023-03-25T07:58:13.105Z,7.79
2023-03-25T08:00:40.101Z,7.77
2023-03-25T08:03:07.295Z,7.75
2023-03-25T08:05:34.401Z,7.72
2023-03-25T08:08:01.481Z,7.76
2023-03-25T08:10:28.543Z,7.83
2023-03-25T08:12:55.520Z,7.85
2023-03-25T08:15:24.834Z,7.92
2023-03-25T08:17:52.440Z,8.00
2023-03-25T08:20:19.676Z,8.06
2023-03-25T08:22:46.611Z,8.12
2023-03-25T08:25:14.530Z,8.18
2023-03-25T08:27:41.517Z,8.17
2023-03-25T08:30:10.279Z,8.15
2023-03-25T08:32:38.535Z,8.16
2023-03-25T08:35:06.394Z,8.21
2023-03-25T08:37:37.877Z,8.27
2023-03-25T08:40:11.741Z,8.34
2023-03-25T08:42:39.102Z,8.44
2023-03-25T08:45:07.304Z,8.50
2023-03-25T08:47:34.307Z,8.57
2023-03-25T08:50:01.341Z,8.62
2023-03-25T08:52:28.812Z,8.66
2023-03-25T08:54:55.707Z,8.72
2023-03-25T08:57:22.619Z,8.80
2023-03-25T08:59:50.422Z,8.92
2023-03-25T09:02:18.384Z,9.04
2023-03-25T09:04:48.493Z,9.11
2023-03-25T09:07:15.926Z,9.15
2023-03-25T09:09:43.015Z,9.13
2023-03-25T09:12:11.458Z,9.07
2023-03-25T09:14:38.522Z,9.08
2023-03-25T09:17:06.382Z,9.04
2023-03-25T09:19:38.120Z,9.00
2023-03-25T09:22:05.736Z,9.01
2023-03-25T09:24:34.264Z,9.08
2023-03-25T09:27:02.409Z,9.11
2023-03-25T09:29:29.780Z,9.13
2023-03-25T09:31:58.392Z,9.10
2023-03-25T09:34:25.941Z,9.10
2023-03-25T09:36:53.051Z,9.09
2023-03-25T09:39:20.136Z,9.09
2023-03-25T09:41:54.335Z,9.11
2023-03-25T09:44:25.441Z,9.13
2023-03-25T09:46:52.413Z,9.11
2023-03-25T09:49:22.569Z,9.07
2023-03-25T09:51:50.407Z,9.07
2023-03-25T09:54:25.500Z,9.02
2023-03-25T09:56:53.445Z,8.97
2023-03-25T09:59:23.295Z,8.93
2023-03-25T10:01:55.990Z,8.90
2023-03-25T10:04:46.756Z,8.87
2023-03-25T10:07:50.575Z,8.78
2023-03-25T10:10:42.566Z,8.71
2023-03-25T10:13:14.886Z,8.66
2023-03-25T10:15:59.362Z,8.64
2023-03-25T10:18:34.099Z,8.65
2023-03-25T10:21:12.251Z,8.67
2023-03-25T10:23:51.708Z,8.65
2023-03-25T10:26:24.501Z,8.67
2023-03-25T10:28:59.781Z,8.67
2023-03-25T10:31:27.081Z,8.59
2023-03-25T10:33:56.254Z,8.53
2023-03-25T10:36:39.905Z,8.49
2023-03-25T10:39:15.098Z,8.46
2023-03-25T10:41:43.531Z,8.42
2023-03-25T10:44:10.962Z,8.41
2023-03-25T10:46:47.398Z,8.45
2023-03-25T10:49:18.746Z,8.48
2023-03-25T10:51:45.803Z,8.52
2023-03-25T10:54:12.959Z,8.53
2023-03-25T10:56:48.240Z,8.59
2023-03-25T10:59:20.088Z,8.61
2023-03-25T11:01:47.075Z,8.62
2023-03-25T11:04:17.172Z,8.64
2023-03-25T11:06:55.498Z,8.64
2023-03-25T11:09:28.176Z,8.63
2023-03-25T11:11:55.155Z,8.63
2023-03-25T11:14:26.306Z,8.62
2023-03-25T11:17:15.403Z,8.64
2023-03-25T11:19:44.320Z,8.63
2023-03-25T11:22:24.245Z,8.60
2023-03-25T11:24:54.765Z,8.60
2023-03-25T11:27:24.205Z,8.62
2023-03-25T11:29:56.347Z,8.64
2023-03-25T11:32:25.095Z,8.64
2023-03-25T11:34:52.528Z,8.62
2023-03-25T11:37:24.409Z,8.65
2023-03-25T11:39:55.498Z,8.66
2023-03-25T11:42:25.551Z,8.68
2023-03-25T11:44:53.119Z,8.73
2023-03-25T11:47:35.120Z,8.74
2023-03-25T11:50:02.367Z,8.73
2023-03-25T11:52:46.931Z,8.76
2023-03-25T11:55:23.939Z,8.78
2023-03-25T11:57:51.256Z,8.78
2023-03-25T12:00:37.286Z,8.79
2023-03-25T12:03:30.596Z,8.77
2023-03-25T12:06:16.751Z,8.73
2023-03-25T12:08:46.360Z,8.75
2023-03-25T12:11:21.827Z,8.78
2023-03-25T12:13:51.965Z,8.78
2023-03-25T12:16:40.731Z,8.77
2023-03-25T12:19:10.450Z,8.77
2023-03-25T12:21:37.284Z,8.79
2023-03-25T12:24:16.573Z,8.82
2023-03-25T12:27:08.452Z,8.86
2023-03-25T12:29:43.152Z,8.81
2023-03-25T12:32:38.498Z,8.83
2023-03-25T12:35:17.592Z,8.84
2023-03-25T12:38:04.859Z,8.79
2023-03-25T12:40:59.771Z,8.79
2023-03-25T12:43:35.206Z,8.77
2023-03-25T12:46:30.366Z,8.81
2023-03-25T12:49:34.060Z,8.80
2023-03-25T12:52:41.537Z,8.72
2023-03-25T12:55:39.927Z,8.68
2023-03-25T12:58:27.727Z,8.71
2023-03-25T13:01:10.867Z,8.73
2023-03-25T13:03:50.040Z,8.74
2023-03-25T13:06:18.727Z,8.74
2023-03-25T13:09:11.408Z,8.76
2023-03-25T13:11:59.747Z,8.77
2023-03-25T13:14:30.326Z,8.77
2023-03-25T13:17:00.164Z,8.77
2023-03-25T13:19:27.939Z,8.81
2023-03-25T13:22:03.826Z,8.84
2023-03-25T13:24:53.719Z,8.84
2023-03-25T13:27:20.705Z,8.85
2023-03-25T13:29:53.079Z,8.84
2023-03-25T13:32:37.203Z,8.85
2023-03-25T13:35:07.880Z,8.85
2023-03-25T13:37:39.201Z,8.87
2023-03-25T13:40:28.319Z,8.87
2023-03-25T13:43:04.866Z,8.83
2023-03-25T13:45:43.302Z,8.82
2023-03-25T13:48:35.163Z,8.81
2023-03-25T13:51:03.736Z,8.76
2023-03-25T13:53:33.570Z,8.76
2023-03-25T13:56:06.663Z,8.74
2023-03-25T13:59:01.610Z,8.74
2023-03-25T14:01:56.437Z,8.76
2023-03-25T14:04:48.206Z,8.75
2023-03-25T14:07:27.438Z,8.73
2023-03-25T14:10:25.705Z,8.72
2023-03-25T14:12:59.990Z,8.72
2023-03-25T14:15:30.245Z,8.72
2023-03-25T14:17:57.557Z,8.70
2023-03-25T14:20:35.108Z,8.69
2023-03-25T14:23:04.467Z,8.70
2023-03-25T14:25:48.653Z,8.66
2023-03-25T14:28:39.953Z,8.63
2023-03-25T14:31:09.030Z,8.59
2023-03-25T14:34:07.734Z,8.57
2023-03-25T14:36:40.890Z,8.53
2023-03-25T14:39:30.885Z,8.52
2023-03-25T14:42:05.830Z,8.53
2023-03-25T14:44:41.096Z,8.53
2023-03-25T14:47:16.117Z,8.52
2023-03-25T14:50:01.744Z,8.50
2023-03-25T14:52:45.801Z,8.49
2023-03-25T14:55:26.419Z,8.47
2023-03-25T14:57:59.069Z,8.43
2023-03-25T15:00:29.879Z,8.38
2023-03-25T15:03:14.356Z,8.39
2023-03-25T15:05:41.459Z,8.36
2023-03-25T15:08:16.841Z,8.35
2023-03-25T15:10:46.051Z,8.32
2023-03-25T15:13:22.077Z,8.27
2023-03-25T15:15:50.773Z,8.16
2023-03-25T15:18:35.655Z,8.14
2023-03-25T15:21:08.762Z,8.13
2023-03-25T15:23:47.600Z,8.10
2023-03-25T15:26:31.144Z,8.09
2023-03-25T15:29:16.471Z,8.07
2023-03-25T15:32:01.548Z,8.05
2023-03-25T15:35:06.240Z,8.05
2023-03-25T15:37:52.720Z,7.99
2023-03-25T15:40:26.702Z,7.95
2023-03-25T15:43:20.756Z,7.95
2023-03-25T15:46:07.015Z,7.91
2023-03-25T15:49:01.737Z,7.90
2023-03-25T15:52:02.511Z,7.86
2023-03-25T15:54:45.447Z,7.80
2023-03-25T15:57:34.664Z,7.77
2023-03-25T16:00:18.463Z,7.72
2023-03-25T16:02:51.611Z,7.72
2023-03-25T16:05:18.893Z,7.72
2023-03-25T16:07:46.525Z,7.74
2023-03-25T16:10:16.693Z,7.77
2023-03-25T16:12:46.331Z,7.80
2023-03-25T16:15:17.680Z,7.82
2023-03-25T16:17:45.023Z,7.85
2023-03-25T16:20:18.342Z,7.86
2023-03-25T16:22:50.040Z,7.87
2023-03-25T16:25:22.105Z,7.86
2023-03-25T16:27:54.798Z,7.88
2023-03-25T16:30:38.943Z,7.87
2023-03-25T16:33:10.457Z,7.83
2023-03-25T16:35:39.747Z,7.78
2023-03-25T16:38:06.776Z,7.72
2023-03-25T16:40:40.241Z,7.67
2023-03-25T16:43:23.884Z,7.64
2023-03-25T16:45:52.058Z,7.64
2023-03-25T16:48:22.777Z,7.61
2023-03-25T16:50:51.340Z,7.56
2023-03-25T16:53:18.598Z,7.56
2023-03-25T16:55:47.350Z,7.62
2023-03-25T16:58:23.452Z,7.63
2023-03-25T17:00:51.848Z,7.61
2023-03-25T17:03:37.841Z,7.61
2023-03-25T17:06:13.265Z,7.59
2023-03-25T17:08:40.245Z,7.60
2023-03-25T17:11:08.300Z,7.62
2023-03-25T17:13:43.766Z,7.57
2023-03-25T17:16:10.773Z,7.50
2023-03-25T17:18:39.208Z,7.48
2023-03-25T17:21:11.689Z,7.45
2023-03-25T17:23:41.774Z,7.37
2023-03-25T17:26:12.905Z,7.35
2023-03-25T17:28:49.329Z,7.38
2023-03-25T17:31:36.442Z,7.42
2023-03-25T17:34:37.326Z,7.45
2023-03-25T17:37:04.199Z,7.46
2023-03-25T17:39:32.263Z,7.43
2023-03-25T17:42:06.816Z,7.42
2023-03-25T17:44:41.465Z,7.42
2023-03-25T17:47:10.802Z,7.44
2023-03-25T17:49:37.866Z,7.44
2023-03-25T17:52:04.958Z,7.43
2023-03-25T17:54:35.974Z,7.44
2023-03-25T17:57:04.064Z,7.43
2023-03-25T17:59:31.100Z,7.40
2023-03-25T18:01:58.631Z,7.42
2023-03-25T18:04:25.739Z,7.39
2023-03-25T18:06:52.948Z,7.41
2023-03-25T18:09:22.154Z,7.41
2023-03-25T18:11:53.785Z,7.42
2023-03-25T18:14:21.563Z,7.45
2023-03-25T18:16:48.749Z,7.48
2023-03-25T18:19:18.096Z,7.47
2023-03-25T18:21:45.634Z,7.45
2023-03-25T18:24:16.093Z,7.46
2023-03-25T18:26:43.789Z,7.44
2023-03-25T18:29:18.232Z,7.40
2023-03-25T18:31:45.467Z,7.38
2023-03-25T18:34:13.162Z,7.32
2023-03-25T18:36:41.138Z,7.30
2023-03-25T18:39:15.516Z,7.33
2023-03-25T18:41:42.600Z,7.37
2023-03-25T18:44:09.976Z,7.40
2023-03-25T18:46:41.697Z,7.44
2023-03-25T18:49:13.852Z,7.45
2023-03-25T18:51:40.935Z,7.45
2023-03-25T18:54:07.861Z,7.47
2023-03-25T18:56:34.912Z,7.49
2023-03-25T18:59:01.973Z,7.45
2023-03-25T19:01:29.199Z,7.42
2023-03-25T19:04:02.330Z,7.40
2023-03-25T19:06:29.994Z,7.41
2023-03-25T19:08:57.492Z,7.43
2023-03-25T19:11:24.790Z,7.45
2023-03-25T19:13:51.837Z,7.46
2023-03-25T19:16:19.099Z,7.46
2023-03-25T19:18:47.712Z,7.46
2023-03-25T19:21:19.027Z,7.50
2023-03-25T19:23:46.554Z,7.52
2023-03-25T19:26:13.529Z,7.55
2023-03-25T19:28:41.319Z,7.53
2023-03-25T19:31:08.326Z,7.53
2023-03-25T19:33:35.357Z,7.49
2023-03-25T19:36:04.546Z,7.45
2023-03-25T19:38:33.082Z,7.40
2023-03-25T19:41:08.290Z,7.35
2023-03-25T19:43:35.944Z,7.33
2023-03-25T19:46:03.026Z,7.34
2023-03-25T19:48:30.173Z,7.37
2023-03-25T19:50:57.530Z,7.34
2023-03-25T19:53:24.930Z,7.31
2023-03-25T19:55:52.258Z,7.32
2023-03-25T19:58:20.503Z,7.32
2023-03-25T20:00:47.788Z,7.38
2023-03-25T20:03:14.823Z,7.45
2023-03-25T20:05:42.077Z,7.51
2023-03-25T20:08:09.608Z,7.56
2023-03-25T20:10:37.932Z,7.60
2023-03-25T20:13:04.886Z,7.57
2023-03-25T20:15:32.381Z,7.52
2023-03-25T20:17:59.448Z,7.50
2023-03-25T20:20:26.534Z,7.49
2023-03-25T20:22:53.604Z,7.53
2023-03-25T20:25:20.601Z,7.63
2023-03-25T20:27:47.669Z,7.66
2023-03-25T20:30:17.011Z,7.72
2023-03-25T20:32:45.731Z,7.76
2023-03-25T20:35:15.027Z,7.81
2023-03-25T20:37:42.678Z,7.80
2023-03-25T20:40:11.904Z,7.79
2023-03-25T20:42:42.828Z,7.81
2023-03-25T20:45:11.420Z,7.77
2023-03-25T20:47:38.572Z,7.73
2023-03-25T20:50:06.507Z,7.72
2023-03-25T20:52:34.337Z,7.68
2023-03-25T20:55:01.432Z,7.60
2023-03-25T20:57:29.703Z,7.57
2023-03-25T20:59:56.874Z,7.58
2023-03-25T21:02:24.580Z,7.58
2023-03-25T21:04:55.292Z,7.58
2023-03-25T21:07:22.391Z,7.57
2023-03-25T21:09:49.964Z,7.62
2023-03-25T21:12:17.236Z,7.62
2023-03-25T21:14:44.368Z,7.59
2023-03-25T21:17:11.567Z,7.66
2023-03-25T21:19:38.548Z,7.67
2023-03-25T21:22:05.596Z,7.64
2023-03-25T21:24:35.775Z,7.66
2023-03-25T21:27:03.097Z,7.70
2023-03-25T21:29:30.108Z,7.69
2023-03-25T21:31:57.826Z,7.73
2023-03-25T21:34:25.193Z,7.73
2023-03-25T21:36:52.155Z,7.76
2023-03-25T21:39:19.071Z,7.80
2023-03-25T21:41:46.292Z,7.84
2023-03-25T21:44:15.959Z,7.87
2023-03-25T21:46:43.420Z,7.81
2023-03-25T21:49:11.677Z,7.71
2023-03-25T21:51:42.661Z,7.68
2023-03-25T21:54:10.726Z,7.67
2023-03-25T21:56:40.150Z,7.65
2023-03-25T21:59:07.244Z,7.71
2023-03-25T22:01:35.886Z,7.82
2023-03-25T22:04:03.791Z,7.87
2023-03-25T22:06:31.813Z,7.92
2023-03-25T22:08:59.173Z,7.92
2023-03-25T22:11:29.650Z,7.90
2023-03-25T22:13:56.808Z,7.80
2023-03-25T22:16:23.880Z,7.75
2023-03-25T22:18:50.948Z,7.64
2023-03-25T22:21:26.327Z,7.55
2023-03-25T22:23:54.401Z,7.50
2023-03-25T22:26:21.901Z,7.47
2023-03-25T22:28:51.201Z,7.52
2023-03-25T22:31:19.295Z,7.57
2023-03-25T22:33:46.547Z,7.58
2023-03-25T22:36:14.832Z,7.52
2023-03-25T22:38:46.286Z,7.58
2023-03-25T22:41:14.611Z,7.54
2023-03-25T22:43:41.738Z,7.52
2023-03-25T22:46:09.053Z,7.48
2023-03-25T22:48:39.155Z,7.49
2023-03-25T22:51:10.911Z,7.51
2023-03-25T22:53:37.813Z,7.45
2023-03-25T22:56:05.270Z,7.40
2023-03-25T22:58:32.414Z,7.43
2023-03-25T23:01:00.382Z,7.46
2023-03-25T23:03:27.814Z,7.46
2023-03-25T23:05:58.653Z,7.49
2023-03-25T23:08:30.034Z,7.57
2023-03-25T23:11:11.488Z,7.62
2023-03-25T23:13:39.393Z,7.63
2023-03-25T23:16:11.140Z,7.67
2023-03-25T23:18:39.307Z,7.67
2023-03-25T23:21:06.925Z,7.57
2023-03-25T23:23:34.058Z,7.50
2023-03-25T23:26:14.788Z,7.44
2023-03-25T23:28:44.423Z,7.40
2023-03-25T23:31:14.946Z,7.36
2023-03-25T23:33:42.404Z,7.38
2023-03-25T23:36:09.967Z,7.44
2023-03-25T23:38:37.082Z,7.46
2023-03-25T23:41:11.465Z,7.49
2023-03-25T23:43:38.519Z,7.46
2023-03-25T23:46:06.402Z,7.44
2023-03-25T23:48:33.743Z,7.41
2023-03-25T23:51:00.797Z,7.39
2023-03-25T23:53:27.740Z,7.36
2023-03-25T23:55:55.596Z,7.38
2023-03-25T23:58:25.244Z,7.35
